Terminal Aerodrome Forecast
Issued by NWS Sterling, VA

Current Version | Previous Version | Text Only | Print | Product List | Glossary Off
Versions: 1 2 3 4 5 6 7 8 9 10 11 12 13 14 15 16 17 18 19 20 21 22 23 24 25 26

763
FTUS41 KLWX 291448 AAA
TAFIAD
TAF AMD
KIAD 291448Z 2915/3018 VRB03KT 1SM BR OVC008
     FM291600 VRB03KT 2SM BR OVC008
     FM292200 09005KT P6SM OVC020
     FM300100 08005KT P6SM -DZ OVC025
     FM300300 06004KT 5SM -DZ BR OVC008
     FM301000 05004KT 3SM BR OVC008
     FM301700 11006KT P6SM OVC035=

USA.gov is the U.S. government's official web portal to all federal, state and local government web resources and services.